sensor_id;sensor_type;location;lat;lon;timestamp;P1;durP1;ratioP1;P2;durP2;ratioP2
3901;SDS011;1966;49.908;9.156;2022-12-08T00:00:09;21.70;;;10.50;;
3901;SDS011;1966;49.908;9.156;2022-12-08T00:05:09;13.57;;;9.50;;
3901;SDS011;1966;49.908;9.156;2022-12-08T00:10:27;18.47;;;11.37;;
3901;SDS011;1966;49.908;9.156;2022-12-08T00:15:26;18.17;;;10.57;;
3901;SDS011;1966;49.908;9.156;2022-12-08T00:20:25;15.50;;;9.50;;
3901;SDS011;1966;49.908;9.156;2022-12-08T00:25:26;17.10;;;11.53;;
3901;SDS011;1966;49.908;9.156;2022-12-08T00:30:25;18.60;;;10.73;;
3901;SDS011;1966;49.908;9.156;2022-12-08T00:35:25;18.63;;;10.60;;
3901;SDS011;1966;49.908;9.156;2022-12-08T00:40:24;19.07;;;11.50;;
3901;SDS011;1966;49.908;9.156;2022-12-08T00:45:25;18.83;;;11.50;;
3901;SDS011;1966;49.908;9.156;2022-12-08T00:50:24;17.60;;;10.70;;
3901;SDS011;1966;49.908;9.156;2022-12-08T00:55:23;19.93;;;13.17;;
3901;SDS011;1966;49.908;9.156;2022-12-08T01:00:24;16.57;;;10.80;;
3901;SDS011;1966;49.908;9.156;2022-12-08T01:05:23;16.37;;;10.20;;
3901;SDS011;1966;49.908;9.156;2022-12-08T01:10:23;19.57;;;12.50;;
3901;SDS011;1966;49.908;9.156;2022-12-08T01:15:22;15.97;;;10.37;;
3901;SDS011;1966;49.908;9.156;2022-12-08T01:20:23;25.90;;;12.17;;
3901;SDS011;1966;49.908;9.156;2022-12-08T01:25:22;18.10;;;11.50;;
3901;SDS011;1966;49.908;9.156;2022-12-08T01:30:21;17.40;;;10.90;;
3901;SDS011;1966;49.908;9.156;2022-12-08T01:35:22;18.47;;;11.00;;
3901;SDS011;1966;49.908;9.156;2022-12-08T01:40:21;19.57;;;11.00;;
3901;SDS011;1966;49.908;9.156;2022-12-08T01:45:22;20.47;;;12.03;;
3901;SDS011;1966;49.908;9.156;2022-12-08T01:50:24;17.43;;;11.03;;
3901;SDS011;1966;49.908;9.156;2022-12-08T01:55:25;19.17;;;11.93;;
3901;SDS011;1966;49.908;9.156;2022-12-08T02:00:26;19.50;;;12.70;;
3901;SDS011;1966;49.908;9.156;2022-12-08T02:05:27;19.70;;;11.23;;
3901;SDS011;1966;49.908;9.156;2022-12-08T02:10:28;18.97;;;12.07;;
3901;SDS011;1966;49.908;9.156;2022-12-08T02:15:30;22.20;;;12.50;;
3901;SDS011;1966;49.908;9.156;2022-12-08T02:20:38;23.80;;;12.60;;
3901;SDS011;1966;49.908;9.156;2022-12-08T02:25:42;21.83;;;12.50;;
3901;SDS011;1966;49.908;9.156;2022-12-08T02:30:49;23.43;;;12.33;;
3901;SDS011;1966;49.908;9.156;2022-12-08T02:35:57;19.33;;;13.03;;
3901;SDS011;1966;49.908;9.156;2022-12-08T02:40:58;16.20;;;10.80;;
3901;SDS011;1966;49.908;9.156;2022-12-08T02:46:02;16.93;;;11.60;;
3901;SDS011;1966;49.908;9.156;2022-12-08T02:51:04;20.77;;;12.13;;
3901;SDS011;1966;49.908;9.156;2022-12-08T02:56:07;17.37;;;10.57;;
3901;SDS011;1966;49.908;9.156;2022-12-08T03:01:14;20.20;;;11.30;;
3901;SDS011;1966;49.908;9.156;2022-12-08T03:06:21;17.73;;;9.80;;
3901;SDS011;1966;49.908;9.156;2022-12-08T03:11:24;18.30;;;10.87;;
3901;SDS011;1966;49.908;9.156;2022-12-08T03:16:26;17.40;;;10.97;;
3901;SDS011;1966;49.908;9.156;2022-12-08T03:21:27;17.93;;;10.87;;
3901;SDS011;1966;49.908;9.156;2022-12-08T03:26:27;21.60;;;12.07;;
3901;SDS011;1966;49.908;9.156;2022-12-08T03:31:28;17.80;;;10.10;;
3901;SDS011;1966;49.908;9.156;2022-12-08T03:36:30;17.70;;;11.13;;
3901;SDS011;1966;49.908;9.156;2022-12-08T03:41:30;18.03;;;11.17;;
3901;SDS011;1966;49.908;9.156;2022-12-08T03:46:29;16.87;;;11.03;;
3901;SDS011;1966;49.908;9.156;2022-12-08T03:51:28;17.50;;;10.87;;
3901;SDS011;1966;49.908;9.156;2022-12-08T03:56:30;17.77;;;11.10;;
3901;SDS011;1966;49.908;9.156;2022-12-08T04:01:30;19.37;;;10.87;;
3901;SDS011;1966;49.908;9.156;2022-12-08T04:06:29;16.63;;;10.37;;
3901;SDS011;1966;49.908;9.156;2022-12-08T04:11:30;17.00;;;11.27;;
3901;SDS011;1966;49.908;9.156;2022-12-08T04:16:29;20.20;;;11.50;;
3901;SDS011;1966;49.908;9.156;2022-12-08T04:21:29;19.33;;;11.13;;
3901;SDS011;1966;49.908;9.156;2022-12-08T04:26:28;19.93;;;12.00;;
3901;SDS011;1966;49.908;9.156;2022-12-08T04:31:29;20.47;;;12.10;;
3901;SDS011;1966;49.908;9.156;2022-12-08T04:36:28;19.73;;;12.30;;
3901;SDS011;1966;49.908;9.156;2022-12-08T04:41:27;20.37;;;12.63;;
3901;SDS011;1966;49.908;9.156;2022-12-08T04:46:28;19.17;;;11.10;;
3901;SDS011;1966;49.908;9.156;2022-12-08T04:51:27;18.40;;;11.30;;
3901;SDS011;1966;49.908;9.156;2022-12-08T04:56:27;19.43;;;12.30;;
3901;SDS011;1966;49.908;9.156;2022-12-08T05:01:26;17.70;;;11.20;;
3901;SDS011;1966;49.908;9.156;2022-12-08T05:06:27;17.80;;;11.40;;
3901;SDS011;1966;49.908;9.156;2022-12-08T05:11:26;16.20;;;10.83;;
3901;SDS011;1966;49.908;9.156;2022-12-08T05:16:25;14.53;;;9.90;;
3901;SDS011;1966;49.908;9.156;2022-12-08T05:21:24;17.87;;;12.17;;
3901;SDS011;1966;49.908;9.156;2022-12-08T05:26:25;17.43;;;11.43;;
3901;SDS011;1966;49.908;9.156;2022-12-08T05:31:24;17.37;;;10.43;;
3901;SDS011;1966;49.908;9.156;2022-12-08T05:36:24;17.13;;;11.30;;
3901;SDS011;1966;49.908;9.156;2022-12-08T05:41:23;16.83;;;12.10;;
3901;SDS011;1966;49.908;9.156;2022-12-08T05:46:24;16.33;;;11.00;;
3901;SDS011;1966;49.908;9.156;2022-12-08T05:51:23;17.67;;;10.60;;
3901;SDS011;1966;49.908;9.156;2022-12-08T05:56:22;24.03;;;11.90;;
3901;SDS011;1966;49.908;9.156;2022-12-08T06:01:24;15.33;;;10.17;;
3901;SDS011;1966;49.908;9.156;2022-12-08T06:06:24;16.13;;;9.90;;
3901;SDS011;1966;49.908;9.156;2022-12-08T06:11:24;20.03;;;12.10;;
3901;SDS011;1966;49.908;9.156;2022-12-08T06:16:26;24.23;;;12.40;;
3901;SDS011;1966;49.908;9.156;2022-12-08T06:21:25;36.20;;;18.30;;
3901;SDS011;1966;49.908;9.156;2022-12-08T06:26:25;18.00;;;10.73;;
3901;SDS011;1966;49.908;9.156;2022-12-08T06:31:26;20.17;;;12.57;;
3901;SDS011;1966;49.908;9.156;2022-12-08T06:36:25;18.13;;;11.33;;
3901;SDS011;1966;49.908;9.156;2022-12-08T06:41:25;15.93;;;10.60;;
3901;SDS011;1966;49.908;9.156;2022-12-08T06:46:26;17.10;;;10.93;;
3901;SDS011;1966;49.908;9.156;2022-12-08T06:51:25;20.60;;;11.10;;
3901;SDS011;1966;49.908;9.156;2022-12-08T06:56:24;17.93;;;10.70;;
3901;SDS011;1966;49.908;9.156;2022-12-08T07:01:26;17.00;;;10.47;;
3901;SDS011;1966;49.908;9.156;2022-12-08T07:06:25;23.73;;;11.20;;
3901;SDS011;1966;49.908;9.156;2022-12-08T07:11:25;16.77;;;11.00;;
3901;SDS011;1966;49.908;9.156;2022-12-08T07:16:24;16.93;;;11.20;;
3901;SDS011;1966;49.908;9.156;2022-12-08T07:21:25;14.37;;;10.03;;
3901;SDS011;1966;49.908;9.156;2022-12-08T07:26:24;17.57;;;11.30;;
3901;SDS011;1966;49.908;9.156;2022-12-08T07:31:24;18.50;;;12.03;;
3901;SDS011;1966;49.908;9.156;2022-12-08T07:36:25;16.57;;;10.30;;
3901;SDS011;1966;49.908;9.156;2022-12-08T07:41:24;17.80;;;11.00;;
3901;SDS011;1966;49.908;9.156;2022-12-08T07:46:24;20.13;;;11.97;;
3901;SDS011;1966;49.908;9.156;2022-12-08T07:51:25;20.30;;;12.37;;
3901;SDS011;1966;49.908;9.156;2022-12-08T07:56:24;21.07;;;14.20;;
3901;SDS011;1966;49.908;9.156;2022-12-08T08:01:24;17.83;;;11.70;;
3901;SDS011;1966;49.908;9.156;2022-12-08T08:06:25;17.10;;;11.30;;
3901;SDS011;1966;49.908;9.156;2022-12-08T08:11:24;18.07;;;11.43;;
3901;SDS011;1966;49.908;9.156;2022-12-08T08:16:24;17.70;;;11.93;;
3901;SDS011;1966;49.908;9.156;2022-12-08T08:21:23;17.67;;;11.50;;
3901;SDS011;1966;49.908;9.156;2022-12-08T08:26:24;17.13;;;11.17;;
3901;SDS011;1966;49.908;9.156;2022-12-08T08:31:23;18.33;;;11.67;;
3901;SDS011;1966;49.908;9.156;2022-12-08T08:36:23;19.77;;;11.60;;
3901;SDS011;1966;49.908;9.156;2022-12-08T08:41:24;14.43;;;10.30;;
3901;SDS011;1966;49.908;9.156;2022-12-08T08:46:23;17.07;;;9.90;;
3901;SDS011;1966;49.908;9.156;2022-12-08T08:51:23;13.47;;;9.40;;
3901;SDS011;1966;49.908;9.156;2022-12-08T08:56:22;14.37;;;9.43;;
3901;SDS011;1966;49.908;9.156;2022-12-08T09:01:23;14.63;;;10.43;;
3901;SDS011;1966;49.908;9.156;2022-12-08T09:06:23;13.53;;;9.53;;
3901;SDS011;1966;49.908;9.156;2022-12-08T09:11:23;13.77;;;8.23;;
3901;SDS011;1966;49.908;9.156;2022-12-08T09:16:23;15.30;;;10.43;;
3901;SDS011;1966;49.908;9.156;2022-12-08T09:21:23;13.00;;;9.03;;
3901;SDS011;1966;49.908;9.156;2022-12-08T09:26:23;12.37;;;8.97;;
3901;SDS011;1966;49.908;9.156;2022-12-08T09:31:23;11.63;;;8.37;;
3901;SDS011;1966;49.908;9.156;2022-12-08T09:36:23;11.20;;;8.13;;
3901;SDS011;1966;49.908;9.156;2022-12-08T09:41:25;13.00;;;9.20;;
3901;SDS011;1966;49.908;9.156;2022-12-08T09:46:29;12.70;;;8.13;;
3901;SDS011;1966;49.908;9.156;2022-12-08T09:51:30;12.40;;;8.60;;
3901;SDS011;1966;49.908;9.156;2022-12-08T09:56:31;13.23;;;8.60;;
3901;SDS011;1966;49.908;9.156;2022-12-08T10:01:35;10.73;;;8.50;;
3901;SDS011;1966;49.908;9.156;2022-12-08T10:06:40;10.50;;;7.33;;
3901;SDS011;1966;49.908;9.156;2022-12-08T10:11:41;10.67;;;7.33;;
3901;SDS011;1966;49.908;9.156;2022-12-08T10:16:45;13.57;;;8.47;;
3901;SDS011;1966;49.908;9.156;2022-12-08T10:21:46;14.60;;;8.00;;
3901;SDS011;1966;49.908;9.156;2022-12-08T10:26:46;8.70;;;6.70;;
3901;SDS011;1966;49.908;9.156;2022-12-08T10:31:46;12.83;;;7.80;;
3901;SDS011;1966;49.908;9.156;2022-12-08T10:36:47;9.47;;;7.30;;
3901;SDS011;1966;49.908;9.156;2022-12-08T10:41:46;13.30;;;7.63;;
3901;SDS011;1966;49.908;9.156;2022-12-08T10:46:47;9.17;;;6.40;;
3901;SDS011;1966;49.908;9.156;2022-12-08T10:51:46;12.20;;;7.27;;
3901;SDS011;1966;49.908;9.156;2022-12-08T10:56:49;10.70;;;7.43;;
3901;SDS011;1966;49.908;9.156;2022-12-08T11:01:53;11.07;;;7.20;;
3901;SDS011;1966;49.908;9.156;2022-12-08T11:06:52;8.00;;;5.90;;
3901;SDS011;1966;49.908;9.156;2022-12-08T11:11:52;9.30;;;5.83;;
3901;SDS011;1966;49.908;9.156;2022-12-08T11:16:55;7.90;;;6.03;;
3901;SDS011;1966;49.908;9.156;2022-12-08T11:22:00;8.53;;;5.70;;
3901;SDS011;1966;49.908;9.156;2022-12-08T11:27:00;9.70;;;6.07;;
3901;SDS011;1966;49.908;9.156;2022-12-08T11:32:02;6.70;;;5.27;;
3901;SDS011;1966;49.908;9.156;2022-12-08T11:37:02;6.93;;;5.40;;
3901;SDS011;1966;49.908;9.156;2022-12-08T11:42:03;6.87;;;4.57;;
3901;SDS011;1966;49.908;9.156;2022-12-08T11:47:07;7.53;;;4.30;;
3901;SDS011;1966;49.908;9.156;2022-12-08T11:52:11;7.23;;;4.80;;
3901;SDS011;1966;49.908;9.156;2022-12-08T11:57:16;5.83;;;4.50;;
3901;SDS011;1966;49.908;9.156;2022-12-08T12:02:19;5.60;;;4.00;;
3901;SDS011;1966;49.908;9.156;2022-12-08T12:07:38;4.00;;;3.57;;
3901;SDS011;1966;49.908;9.156;2022-12-08T12:12:43;6.30;;;3.77;;
3901;SDS011;1966;49.908;9.156;2022-12-08T12:17:51;5.20;;;3.90;;
3901;SDS011;1966;49.908;9.156;2022-12-08T12:22:51;6.13;;;4.53;;
3901;SDS011;1966;49.908;9.156;2022-12-08T12:27:55;9.50;;;5.73;;
3901;SDS011;1966;49.908;9.156;2022-12-08T12:32:57;13.47;;;6.93;;
3901;SDS011;1966;49.908;9.156;2022-12-08T12:37:59;9.83;;;5.43;;
3901;SDS011;1966;49.908;9.156;2022-12-08T12:43:13;8.37;;;5.57;;
3901;SDS011;1966;49.908;9.156;2022-12-08T12:48:24;9.10;;;5.90;;
3901;SDS011;1966;49.908;9.156;2022-12-08T12:58:42;5.33;;;3.80;;
3901;SDS011;1966;49.908;9.156;2022-12-08T13:03:43;7.80;;;5.17;;
3901;SDS011;1966;49.908;9.156;2022-12-08T13:08:48;6.37;;;4.73;;
3901;SDS011;1966;49.908;9.156;2022-12-08T13:13:54;6.90;;;4.83;;
3901;SDS011;1966;49.908;9.156;2022-12-08T13:18:56;7.87;;;5.47;;
3901;SDS011;1966;49.908;9.156;2022-12-08T13:24:11;7.10;;;5.20;;
3901;SDS011;1966;49.908;9.156;2022-12-08T13:29:20;6.07;;;4.93;;
3901;SDS011;1966;49.908;9.156;2022-12-08T13:34:23;9.73;;;5.40;;
3901;SDS011;1966;49.908;9.156;2022-12-08T13:39:25;5.80;;;4.63;;
3901;SDS011;1966;49.908;9.156;2022-12-08T13:44:28;6.27;;;4.60;;
3901;SDS011;1966;49.908;9.156;2022-12-08T13:49:32;5.73;;;5.10;;
3901;SDS011;1966;49.908;9.156;2022-12-08T13:54:33;9.40;;;4.97;;
3901;SDS011;1966;49.908;9.156;2022-12-08T13:59:33;7.73;;;5.63;;
3901;SDS011;1966;49.908;9.156;2022-12-08T14:04:34;7.60;;;5.37;;
3901;SDS011;1966;49.908;9.156;2022-12-08T14:09:34;10.33;;;5.77;;
3901;SDS011;1966;49.908;9.156;2022-12-08T14:14:35;6.77;;;5.27;;
3901;SDS011;1966;49.908;9.156;2022-12-08T14:19:38;7.60;;;5.27;;
3901;SDS011;1966;49.908;9.156;2022-12-08T14:24:37;8.10;;;5.53;;
3901;SDS011;1966;49.908;9.156;2022-12-08T14:29:38;8.70;;;5.90;;
3901;SDS011;1966;49.908;9.156;2022-12-08T14:34:39;8.23;;;5.17;;
3901;SDS011;1966;49.908;9.156;2022-12-08T14:39:40;6.73;;;5.37;;
3901;SDS011;1966;49.908;9.156;2022-12-08T14:44:39;8.57;;;4.37;;
3901;SDS011;1966;49.908;9.156;2022-12-08T14:49:40;6.40;;;4.90;;
3901;SDS011;1966;49.908;9.156;2022-12-08T14:54:41;7.20;;;5.43;;
3901;SDS011;1966;49.908;9.156;2022-12-08T14:59:42;6.47;;;4.83;;
3901;SDS011;1966;49.908;9.156;2022-12-08T15:04:44;6.30;;;5.07;;
3901;SDS011;1966;49.908;9.156;2022-12-08T15:09:45;14.30;;;7.90;;
3901;SDS011;1966;49.908;9.156;2022-12-08T15:14:53;10.47;;;6.60;;
3901;SDS011;1966;49.908;9.156;2022-12-08T15:19:55;9.23;;;6.40;;
3901;SDS011;1966;49.908;9.156;2022-12-08T15:24:55;8.27;;;5.83;;
3901;SDS011;1966;49.908;9.156;2022-12-08T15:29:54;16.17;;;9.10;;
3901;SDS011;1966;49.908;9.156;2022-12-08T15:34:54;10.30;;;6.93;;
3901;SDS011;1966;49.908;9.156;2022-12-08T15:39:54;9.47;;;6.70;;
3901;SDS011;1966;49.908;9.156;2022-12-08T15:44:54;11.87;;;7.97;;
3901;SDS011;1966;49.908;9.156;2022-12-08T15:49:53;11.53;;;8.13;;
3901;SDS011;1966;49.908;9.156;2022-12-08T15:54:52;13.47;;;7.30;;
3901;SDS011;1966;49.908;9.156;2022-12-08T15:59:53;19.57;;;10.87;;
3901;SDS011;1966;49.908;9.156;2022-12-08T16:04:52;18.73;;;10.97;;
3901;SDS011;1966;49.908;9.156;2022-12-08T16:09:52;18.57;;;12.20;;
3901;SDS011;1966;49.908;9.156;2022-12-08T16:14:53;15.90;;;10.17;;
3901;SDS011;1966;49.908;9.156;2022-12-08T16:19:52;12.70;;;8.10;;
3901;SDS011;1966;49.908;9.156;2022-12-08T16:24:52;12.10;;;7.80;;
3901;SDS011;1966;49.908;9.156;2022-12-08T16:29:52;9.63;;;8.10;;
3901;SDS011;1966;49.908;9.156;2022-12-08T16:34:53;13.27;;;9.13;;
3901;SDS011;1966;49.908;9.156;2022-12-08T16:39:53;13.30;;;9.70;;
3901;SDS011;1966;49.908;9.156;2022-12-08T16:44:52;14.93;;;10.23;;
3901;SDS011;1966;49.908;9.156;2022-12-08T16:49:53;14.60;;;10.20;;
3901;SDS011;1966;49.908;9.156;2022-12-08T16:54:52;15.10;;;10.57;;
3901;SDS011;1966;49.908;9.156;2022-12-08T16:59:52;13.50;;;9.50;;
3901;SDS011;1966;49.908;9.156;2022-12-08T17:04:51;18.17;;;11.00;;
3901;SDS011;1966;49.908;9.156;2022-12-08T17:09:52;15.63;;;9.80;;
3901;SDS011;1966;49.908;9.156;2022-12-08T17:14:51;12.03;;;8.20;;
3901;SDS011;1966;49.908;9.156;2022-12-08T17:19:50;13.70;;;8.30;;
3901;SDS011;1966;49.908;9.156;2022-12-08T17:24:51;11.30;;;8.10;;
3901;SDS011;1966;49.908;9.156;2022-12-08T17:29:50;12.40;;;8.40;;
3901;SDS011;1966;49.908;9.156;2022-12-08T17:34:50;12.00;;;8.30;;
3901;SDS011;1966;49.908;9.156;2022-12-08T17:39:49;12.37;;;8.47;;
3901;SDS011;1966;49.908;9.156;2022-12-08T17:44:50;13.67;;;8.63;;
3901;SDS011;1966;49.908;9.156;2022-12-08T17:49:49;12.00;;;8.30;;
3901;SDS011;1966;49.908;9.156;2022-12-08T17:54:48;12.73;;;8.93;;
3901;SDS011;1966;49.908;9.156;2022-12-08T17:59:49;11.87;;;8.83;;
3901;SDS011;1966;49.908;9.156;2022-12-08T18:04:48;11.80;;;7.67;;
3901;SDS011;1966;49.908;9.156;2022-12-08T18:09:48;11.40;;;8.13;;
3901;SDS011;1966;49.908;9.156;2022-12-08T18:14:49;12.90;;;8.67;;
3901;SDS011;1966;49.908;9.156;2022-12-08T18:19:49;12.97;;;7.77;;
3901;SDS011;1966;49.908;9.156;2022-12-08T18:24:49;11.97;;;7.73;;
3901;SDS011;1966;49.908;9.156;2022-12-08T18:29:49;12.60;;;8.00;;
3901;SDS011;1966;49.908;9.156;2022-12-08T18:34:49;11.17;;;8.67;;
3901;SDS011;1966;49.908;9.156;2022-12-08T18:39:48;14.57;;;9.03;;
3901;SDS011;1966;49.908;9.156;2022-12-08T18:44:50;12.03;;;7.80;;
3901;SDS011;1966;49.908;9.156;2022-12-08T18:49:53;12.37;;;8.37;;
3901;SDS011;1966;49.908;9.156;2022-12-08T18:54:52;14.63;;;8.10;;
3901;SDS011;1966;49.908;9.156;2022-12-08T18:59:53;13.03;;;8.70;;
3901;SDS011;1966;49.908;9.156;2022-12-08T19:04:53;13.80;;;8.27;;
3901;SDS011;1966;49.908;9.156;2022-12-08T19:09:53;13.27;;;8.80;;
3901;SDS011;1966;49.908;9.156;2022-12-08T19:14:55;12.53;;;8.53;;
3901;SDS011;1966;49.908;9.156;2022-12-08T19:19:54;10.50;;;7.90;;
3901;SDS011;1966;49.908;9.156;2022-12-08T19:24:54;17.23;;;9.23;;
3901;SDS011;1966;49.908;9.156;2022-12-08T19:29:55;13.23;;;8.80;;
3901;SDS011;1966;49.908;9.156;2022-12-08T19:34:54;17.90;;;10.70;;
3901;SDS011;1966;49.908;9.156;2022-12-08T19:39:53;17.40;;;11.33;;
3901;SDS011;1966;49.908;9.156;2022-12-08T19:45:12;16.30;;;10.10;;
3901;SDS011;1966;49.908;9.156;2022-12-08T19:50:13;13.80;;;10.00;;
3901;SDS011;1966;49.908;9.156;2022-12-08T19:55:30;18.77;;;11.93;;
3901;SDS011;1966;49.908;9.156;2022-12-08T20:00:31;21.87;;;11.63;;
3901;SDS011;1966;49.908;9.156;2022-12-08T20:05:31;19.83;;;10.27;;
3901;SDS011;1966;49.908;9.156;2022-12-08T20:10:32;17.53;;;10.50;;
3901;SDS011;1966;49.908;9.156;2022-12-08T20:15:34;14.63;;;9.43;;
3901;SDS011;1966;49.908;9.156;2022-12-08T20:20:33;12.50;;;8.43;;
3901;SDS011;1966;49.908;9.156;2022-12-08T20:25:33;15.80;;;10.30;;
3901;SDS011;1966;49.908;9.156;2022-12-08T20:30:32;14.27;;;8.70;;
3901;SDS011;1966;49.908;9.156;2022-12-08T20:35:33;14.50;;;10.40;;
3901;SDS011;1966;49.908;9.156;2022-12-08T20:40:32;14.40;;;9.60;;
3901;SDS011;1966;49.908;9.156;2022-12-08T20:45:32;14.93;;;8.80;;
3901;SDS011;1966;49.908;9.156;2022-12-08T20:50:31;12.90;;;8.50;;
3901;SDS011;1966;49.908;9.156;2022-12-08T20:55:32;18.43;;;10.03;;
3901;SDS011;1966;49.908;9.156;2022-12-08T21:00:32;32.17;;;14.23;;
3901;SDS011;1966;49.908;9.156;2022-12-08T21:05:31;49.80;;;19.67;;
3901;SDS011;1966;49.908;9.156;2022-12-08T21:10:33;35.10;;;15.87;;
3901;SDS011;1966;49.908;9.156;2022-12-08T21:15:33;26.23;;;13.80;;
3901;SDS011;1966;49.908;9.156;2022-12-08T21:20:32;21.47;;;11.43;;
3901;SDS011;1966;49.908;9.156;2022-12-08T21:25:31;18.17;;;10.63;;
3901;SDS011;1966;49.908;9.156;2022-12-08T21:30:32;13.10;;;9.37;;
3901;SDS011;1966;49.908;9.156;2022-12-08T21:35:31;15.03;;;10.20;;
3901;SDS011;1966;49.908;9.156;2022-12-08T21:40:30;11.23;;;8.07;;
3901;SDS011;1966;49.908;9.156;2022-12-08T21:45:33;12.40;;;8.27;;
3901;SDS011;1966;49.908;9.156;2022-12-08T21:50:32;13.20;;;8.87;;
3901;SDS011;1966;49.908;9.156;2022-12-08T21:55:31;13.67;;;8.77;;
3901;SDS011;1966;49.908;9.156;2022-12-08T22:00:32;13.07;;;8.87;;
3901;SDS011;1966;49.908;9.156;2022-12-08T22:05:33;13.70;;;9.30;;
3901;SDS011;1966;49.908;9.156;2022-12-08T22:10:33;11.97;;;8.00;;
3901;SDS011;1966;49.908;9.156;2022-12-08T22:15:34;11.40;;;7.63;;
3901;SDS011;1966;49.908;9.156;2022-12-08T22:20:33;12.70;;;8.20;;
3901;SDS011;1966;49.908;9.156;2022-12-08T22:25:32;13.63;;;7.77;;
3901;SDS011;1966;49.908;9.156;2022-12-08T22:30:31;11.37;;;8.17;;
3901;SDS011;1966;49.908;9.156;2022-12-08T22:35:32;13.40;;;9.03;;
3901;SDS011;1966;49.908;9.156;2022-12-08T22:40:32;15.03;;;8.93;;
3901;SDS011;1966;49.908;9.156;2022-12-08T22:45:31;12.27;;;8.70;;
3901;SDS011;1966;49.908;9.156;2022-12-08T22:50:30;15.10;;;8.57;;
3901;SDS011;1966;49.908;9.156;2022-12-08T22:55:31;11.60;;;8.63;;
3901;SDS011;1966;49.908;9.156;2022-12-08T23:00:31;12.50;;;8.70;;
3901;SDS011;1966;49.908;9.156;2022-12-08T23:05:31;13.20;;;9.63;;
3901;SDS011;1966;49.908;9.156;2022-12-08T23:10:32;14.10;;;9.07;;
3901;SDS011;1966;49.908;9.156;2022-12-08T23:15:31;16.57;;;9.40;;
3901;SDS011;1966;49.908;9.156;2022-12-08T23:20:31;15.63;;;9.30;;
3901;SDS011;1966;49.908;9.156;2022-12-08T23:25:31;13.43;;;9.47;;
3901;SDS011;1966;49.908;9.156;2022-12-08T23:30:31;18.20;;;10.17;;
3901;SDS011;1966;49.908;9.156;2022-12-08T23:35:30;15.80;;;9.77;;
3901;SDS011;1966;49.908;9.156;2022-12-08T23:40:29;16.10;;;9.50;;
3901;SDS011;1966;49.908;9.156;2022-12-08T23:45:30;15.73;;;9.27;;
3901;SDS011;1966;49.908;9.156;2022-12-08T23:50:29;14.73;;;9.10;;
3901;SDS011;1966;49.908;9.156;2022-12-08T23:55:29;16.10;;;9.13;;
